createdAt,value
2023-04-06T00:01:34.238Z,101840.94
2023-04-06T00:04:03.939Z,101841.34
2023-04-06T00:06:33.540Z,101836.37
2023-04-06T00:09:03.441Z,101832.03
2023-04-06T00:11:32.796Z,101827.12
2023-04-06T00:14:02.595Z,101829.56
2023-04-06T00:16:31.894Z,101825.06
2023-04-06T00:19:01.156Z,101824.92
2023-04-06T00:21:32.323Z,101821.45
2023-04-06T00:24:02.090Z,101812.58
2023-04-06T00:26:31.352Z,101810.48
2023-04-06T00:29:01.331Z,101805.77
2023-04-06T00:31:31.555Z,101804.05
2023-04-06T00:34:00.964Z,101802.30
2023-04-06T00:36:31.152Z,101800.55
2023-04-06T00:39:00.718Z,101800.69
2023-04-06T00:41:30.376Z,101801.20
2023-04-06T00:43:59.749Z,101794.61
2023-04-06T00:46:29.159Z,101799.45
2023-04-06T00:48:59.245Z,101798.83
2023-04-06T00:51:28.831Z,101792.06
2023-04-06T00:53:58.519Z,101793.82
2023-04-06T00:56:28.521Z,101783.30
2023-04-06T00:58:58.563Z,101790.09
2023-04-06T01:01:29.710Z,101784.30
2023-04-06T01:04:03.276Z,101785.75
2023-04-06T01:06:34.224Z,101781.39
2023-04-06T01:09:04.273Z,101775.76
2023-04-06T01:11:33.599Z,101775.05
2023-04-06T01:14:04.239Z,101768.59
2023-04-06T01:16:38.423Z,101767.14
2023-04-06T01:19:12.677Z,101763.77
2023-04-06T01:21:44.469Z,101757.84
2023-04-06T01:24:34.509Z,101755.75
2023-04-06T01:27:14.949Z,101755.16
2023-04-06T01:29:49.246Z,101751.31
2023-04-06T01:32:20.451Z,101746.95
2023-04-06T01:34:52.053Z,101747.02
2023-04-06T01:37:23.010Z,101748.55
2023-04-06T01:39:54.265Z,101742.09
2023-04-06T01:42:25.267Z,101748.83
2023-04-06T01:44:54.857Z,101738.50
2023-04-06T01:47:24.222Z,101731.59
2023-04-06T01:49:53.662Z,101730.59
2023-04-06T01:52:24.597Z,101726.28
2023-04-06T01:54:54.926Z,101722.44
2023-04-06T01:57:26.551Z,101725.57
2023-04-06T01:59:57.735Z,101717.16
2023-04-06T02:02:28.919Z,101720.06
2023-04-06T02:05:00.812Z,101712.45
2023-04-06T02:07:30.898Z,101716.89
2023-04-06T02:10:00.453Z,101710.29
2023-04-06T02:12:31.431Z,101706.07
2023-04-06T02:15:00.896Z,101703.61
2023-04-06T02:17:30.372Z,101699.97
2023-04-06T02:20:00.049Z,101693.73
2023-04-06T02:22:29.374Z,101691.64
2023-04-06T02:24:58.846Z,101687.22
2023-04-06T02:27:28.320Z,101687.28
2023-04-06T02:29:57.620Z,101683.95
2023-04-06T02:32:27.257Z,101684.95
2023-04-06T02:34:57.796Z,101681.11
2023-04-06T02:37:27.410Z,101684.88
2023-04-06T02:39:56.900Z,101677.13
2023-04-06T02:42:27.884Z,101670.54
2023-04-06T02:44:57.994Z,101671.05
2023-04-06T02:47:28.992Z,101664.53
2023-04-06T02:49:58.417Z,101669.30
2023-04-06T02:52:28.355Z,101669.23
2023-04-06T02:54:58.177Z,101674.59
2023-04-06T02:57:29.806Z,101664.77
2023-04-06T02:59:59.130Z,101663.87
2023-04-06T03:02:30.593Z,101665.70
2023-04-06T03:05:01.633Z,101662.95
2023-04-06T03:07:33.070Z,101662.43
2023-04-06T03:10:02.390Z,101658.89
2023-04-06T03:12:32.865Z,101655.13
2023-04-06T03:15:07.496Z,101651.21
2023-04-06T03:17:38.533Z,101650.99
2023-04-06T03:20:10.283Z,101655.36
2023-04-06T03:22:39.991Z,101651.70
2023-04-06T03:25:11.416Z,101642.72
2023-04-06T03:27:41.754Z,101649.92
2023-04-06T03:30:13.568Z,101639.83
2023-04-06T03:32:42.843Z,101641.77
2023-04-06T03:35:12.369Z,101632.78
2023-04-06T03:37:41.718Z,101634.31
2023-04-06T03:40:11.969Z,101632.08
2023-04-06T03:42:41.259Z,101627.42
2023-04-06T03:45:14.089Z,101631.04
2023-04-06T03:47:45.584Z,101631.25
2023-04-06T03:50:15.294Z,101629.55
2023-04-06T03:52:46.587Z,101628.45
2023-04-06T03:55:16.627Z,101621.64
2023-04-06T03:57:46.183Z,101626.56
2023-04-06T04:00:16.402Z,101620.97
2023-04-06T04:02:46.053Z,101621.34
2023-04-06T04:05:16.638Z,101622.05
2023-04-06T04:07:47.516Z,101618.89
2023-04-06T04:10:17.152Z,101620.05
2023-04-06T04:12:46.600Z,101620.41
2023-04-06T04:15:16.338Z,101615.67
2023-04-06T04:17:47.290Z,101615.91
2023-04-06T04:20:17.529Z,101612.77
2023-04-06T04:22:47.010Z,101614.68
2023-04-06T04:25:16.713Z,101621.20
2023-04-06T04:27:47.919Z,101614.94
2023-04-06T04:30:17.411Z,101614.78
2023-04-06T04:32:46.738Z,101613.33
2023-04-06T04:35:17.917Z,101614.78
2023-04-06T04:37:47.449Z,101615.12
2023-04-06T04:40:18.377Z,101613.89
2023-04-06T04:42:49.471Z,101619.36
2023-04-06T04:45:20.863Z,101621.41
2023-04-06T04:47:50.672Z,101618.36
2023-04-06T04:50:20.415Z,101609.99
2023-04-06T04:52:51.501Z,101606.52
2023-04-06T04:55:25.759Z,101614.20
2023-04-06T04:57:56.852Z,101618.12
2023-04-06T05:00:27.861Z,101611.06
2023-04-06T05:02:59.278Z,101613.14
2023-04-06T05:05:30.520Z,101616.91
2023-04-06T05:08:00.397Z,101610.91
2023-04-06T05:10:43.721Z,101609.92
2023-04-06T05:13:13.639Z,101609.45
2023-04-06T05:15:43.279Z,101616.06
2023-04-06T05:18:33.155Z,101617.05
2023-04-06T05:21:02.828Z,101616.14
2023-04-06T05:23:33.888Z,101621.74
2023-04-06T05:26:04.178Z,101615.05
2023-04-06T05:28:35.153Z,101613.75
2023-04-06T05:31:04.777Z,101609.53
2023-04-06T05:33:36.114Z,101617.45
2023-04-06T05:36:08.214Z,101618.97
2023-04-06T05:38:39.660Z,101614.05
2023-04-06T05:41:10.675Z,101610.45
2023-04-06T05:43:41.933Z,101613.92
2023-04-06T05:46:11.961Z,101614.50
2023-04-06T05:48:42.224Z,101610.13
2023-04-06T05:51:12.188Z,101617.45
2023-04-06T05:53:43.313Z,101610.67
2023-04-06T05:56:12.641Z,101608.44
2023-04-06T05:58:42.662Z,101605.66
2023-04-06T06:01:12.959Z,101613.26
2023-04-06T06:03:43.934Z,101609.42
2023-04-06T06:06:13.377Z,101601.95
2023-04-06T06:08:50.808Z,101602.27
2023-04-06T06:11:20.370Z,101608.48
2023-04-06T06:13:49.884Z,101604.27
2023-04-06T06:16:20.681Z,101602.48
2023-04-06T06:18:50.753Z,101598.97
2023-04-06T06:21:20.874Z,101605.02
2023-04-06T06:23:51.254Z,101600.11
2023-04-06T06:26:22.843Z,101599.41
2023-04-06T06:28:52.490Z,101594.03
2023-04-06T06:31:23.721Z,101597.73
2023-04-06T06:33:53.195Z,101602.48
2023-04-06T06:36:23.009Z,101603.26
2023-04-06T06:38:52.771Z,101605.63
2023-04-06T06:41:23.211Z,101603.70
2023-04-06T06:43:52.534Z,101605.39
2023-04-06T06:46:23.051Z,101607.06
2023-04-06T06:48:52.368Z,101608.37
2023-04-06T06:51:21.717Z,101605.83
2023-04-06T06:53:51.001Z,101603.33
2023-04-06T06:56:20.352Z,101604.67
2023-04-06T06:58:50.369Z,101602.66
2023-04-06T07:01:19.783Z,101600.08
2023-04-06T07:03:49.682Z,101595.11
2023-04-06T07:06:18.975Z,101593.77
2023-04-06T07:08:49.057Z,101594.90
2023-04-06T07:11:18.333Z,101597.94
2023-04-06T07:13:47.747Z,101594.28
2023-04-06T07:16:17.269Z,101593.61
2023-04-06T07:18:47.012Z,101594.07
2023-04-06T07:21:16.292Z,101593.66
2023-04-06T07:23:45.842Z,101596.69
2023-04-06T07:26:15.129Z,101589.32
2023-04-06T07:28:44.708Z,101595.25
2023-04-06T07:31:14.556Z,101592.13
2023-04-06T07:33:44.237Z,101586.75
2023-04-06T07:36:13.547Z,101596.05
2023-04-06T07:38:43.787Z,101592.13
2023-04-06T07:41:13.203Z,101596.20
2023-04-06T07:43:43.077Z,101590.45
2023-04-06T07:46:12.456Z,101592.70
2023-04-06T07:48:42.265Z,101591.19
2023-04-06T07:51:13.315Z,101591.00
2023-04-06T07:53:43.354Z,101588.41
2023-04-06T07:56:13.345Z,101596.27
2023-04-06T07:58:42.801Z,101595.05
2023-04-06T08:01:12.231Z,101592.89
2023-04-06T08:03:42.064Z,101601.14
2023-04-06T08:06:11.620Z,101600.48
2023-04-06T08:08:41.331Z,101598.36
2023-04-06T08:11:11.004Z,101598.74
2023-04-06T08:13:40.678Z,101602.09
2023-04-06T08:16:09.975Z,101600.25
2023-04-06T08:18:39.756Z,101603.05
2023-04-06T08:21:09.081Z,101596.67
2023-04-06T08:23:38.737Z,101595.55
2023-04-06T08:26:08.045Z,101596.50
2023-04-06T08:28:37.412Z,101602.58
2023-04-06T08:31:07.593Z,101600.86
2023-04-06T08:33:37.956Z,101604.31
2023-04-06T08:36:11.834Z,101601.26
2023-04-06T08:38:42.561Z,101598.47
2023-04-06T08:41:12.816Z,101598.08
2023-04-06T08:43:48.126Z,101600.77
2023-04-06T08:46:19.473Z,101595.48
2023-04-06T08:48:52.461Z,101596.52
2023-04-06T08:51:21.812Z,101599.80
2023-04-06T08:53:52.876Z,101590.66
2023-04-06T08:56:26.637Z,101593.34
2023-04-06T08:58:57.347Z,101590.27
2023-04-06T09:01:28.859Z,101588.39
2023-04-06T09:04:01.662Z,101594.48
2023-04-06T09:06:31.870Z,101590.27
2023-04-06T09:09:01.208Z,101582.98
2023-04-06T09:11:30.708Z,101591.52
2023-04-06T09:13:59.967Z,101586.67
2023-04-06T09:16:29.298Z,101586.32
2023-04-06T09:19:03.291Z,101579.86
2023-04-06T09:21:32.657Z,101586.78
2023-04-06T09:24:02.937Z,101582.36
2023-04-06T09:26:33.990Z,101582.85
2023-04-06T09:29:04.528Z,101581.08
2023-04-06T09:31:34.303Z,101579.05
2023-04-06T09:34:04.566Z,101583.55
2023-04-06T09:36:35.862Z,101579.07
2023-04-06T09:39:06.097Z,101578.42
2023-04-06T09:41:37.664Z,101578.14
2023-04-06T09:44:11.753Z,101578.71
2023-04-06T09:46:58.874Z,101580.02
2023-04-06T09:49:15.052Z,101582.64
2023-04-06T09:52:02.073Z,101583.77
2023-04-06T09:54:32.996Z,101579.36
2023-04-06T09:57:17.788Z,101577.00
2023-04-06T09:59:59.060Z,101581.51
2023-04-06T10:02:51.909Z,101577.40
2023-04-06T10:05:39.093Z,101574.59
2023-04-06T10:08:11.124Z,101576.19
2023-04-06T10:10:40.837Z,101570.64
2023-04-06T10:13:12.751Z,101571.22
2023-04-06T10:15:42.026Z,101573.47
2023-04-06T10:18:11.414Z,101577.78
2023-04-06T10:20:58.231Z,101577.58
2023-04-06T10:23:40.228Z,101572.72
2023-04-06T10:26:12.730Z,101565.22
2023-04-06T10:28:42.767Z,101567.29
2023-04-06T10:31:12.199Z,101570.45
2023-04-06T10:33:42.454Z,101565.30
2023-04-06T10:36:13.893Z,101560.42
2023-04-06T10:38:43.953Z,101565.95
2023-04-06T10:41:14.948Z,101564.67
2023-04-06T10:43:45.894Z,101563.98
2023-04-06T10:46:15.517Z,101560.71
2023-04-06T10:48:51.048Z,101551.55
2023-04-06T10:51:21.441Z,101560.16
2023-04-06T10:53:51.108Z,101542.90
2023-04-06T10:56:23.760Z,101542.11
2023-04-06T10:58:53.916Z,101536.56
2023-04-06T11:01:25.932Z,101529.51
2023-04-06T11:04:00.535Z,101531.84
2023-04-06T11:06:33.531Z,101525.66
2023-04-06T11:09:03.024Z,101519.88
2023-04-06T11:11:32.399Z,101525.92
2023-04-06T11:14:02.908Z,101533.04
2023-04-06T11:16:34.022Z,101529.25
2023-04-06T11:19:04.855Z,101523.35
2023-04-06T11:21:46.970Z,101531.74
2023-04-06T11:24:24.771Z,101519.28
2023-04-06T11:26:59.185Z,101520.81
2023-04-06T11:29:30.979Z,101522.13
2023-04-06T11:32:05.193Z,101510.22
2023-04-06T11:34:39.516Z,101511.37
2023-04-06T11:37:13.545Z,101510.32
2023-04-06T11:39:52.057Z,101512.84
2023-04-06T11:42:25.427Z,101504.16
2023-04-06T11:44:58.309Z,101499.54
2023-04-06T11:47:35.683Z,101501.67
2023-04-06T11:50:15.978Z,101488.63
2023-04-06T11:52:45.331Z,101491.73
2023-04-06T11:55:19.214Z,101494.00
2023-04-06T11:57:48.455Z,101489.15
2023-04-06T12:00:19.164Z,101478.39
2023-04-06T12:02:50.010Z,101481.31
2023-04-06T12:05:19.910Z,101489.17
2023-04-06T12:07:49.278Z,101483.27
2023-04-06T12:10:18.739Z,101480.16
2023-04-06T12:12:48.369Z,101486.91
2023-04-06T12:15:17.996Z,101479.05
2023-04-06T12:17:47.873Z,101478.30
2023-04-06T12:20:25.750Z,101472.12
2023-04-06T12:22:48.436Z,101474.29
2023-04-06T12:25:19.394Z,101471.93
2023-04-06T12:27:48.725Z,101478.27
2023-04-06T12:30:18.436Z,101475.87
2023-04-06T12:32:50.436Z,101471.09
2023-04-06T12:35:18.839Z,101472.81
2023-04-06T12:37:48.251Z,101468.69
2023-04-06T12:40:18.055Z,101466.27
2023-04-06T12:42:47.873Z,101462.33
2023-04-06T12:45:17.916Z,101460.20
2023-04-06T12:50:46.579Z,101455.45
2023-04-06T12:53:16.169Z,101464.06
2023-04-06T12:55:45.707Z,101458.46
2023-04-06T12:58:15.840Z,101453.21
2023-04-06T13:00:45.736Z,101453.21
2023-04-06T13:03:15.180Z,101455.08
2023-04-06T13:05:49.138Z,101448.45
2023-04-06T13:08:19.988Z,101442.39
2023-04-06T13:10:50.868Z,101438.06
2023-04-06T13:13:24.012Z,101438.92
2023-04-06T13:15:54.213Z,101444.06
2023-04-06T13:18:24.194Z,101438.36
2023-04-06T13:20:53.480Z,101438.64
2023-04-06T13:23:22.743Z,101428.16
2023-04-06T13:26:08.863Z,101424.20
2023-04-06T13:28:39.920Z,101418.44
2023-04-06T13:31:10.691Z,101427.41
2023-04-06T13:33:41.753Z,101410.37
2023-04-06T13:36:11.304Z,101419.19
2023-04-06T13:38:40.681Z,101417.22
2023-04-06T13:41:10.692Z,101411.22
2023-04-06T13:43:40.034Z,101407.20
2023-04-06T13:46:09.344Z,101409.06
2023-04-06T13:48:38.637Z,101414.86
2023-04-06T13:51:15.564Z,101401.10
2023-04-06T13:53:44.886Z,101411.30
2023-04-06T13:56:14.191Z,101407.16
2023-04-06T14:01:46.924Z,101396.48
2023-04-06T14:04:16.580Z,101397.14
2023-04-06T14:06:47.575Z,101395.37
2023-04-06T14:09:16.880Z,101400.12
2023-04-06T14:11:46.249Z,101391.39
2023-04-06T14:14:15.714Z,101391.48
2023-04-06T14:16:47.976Z,101389.92
2023-04-06T14:19:19.821Z,101394.58
2023-04-06T14:21:49.673Z,101390.13
2023-04-06T14:24:20.228Z,101395.27
2023-04-06T14:26:49.729Z,101389.53
2023-04-06T14:29:19.327Z,101390.08
2023-04-06T14:31:50.043Z,101384.58
2023-04-06T14:34:40.989Z,101391.30
2023-04-06T14:37:12.008Z,101377.73
2023-04-06T14:39:41.319Z,101376.67
2023-04-06T14:42:10.995Z,101378.98
2023-04-06T14:44:41.931Z,101378.39
2023-04-06T14:47:14.607Z,101371.08
2023-04-06T14:49:43.902Z,101374.95
2023-04-06T14:52:13.568Z,101372.64
2023-04-06T14:54:42.899Z,101373.55
2023-04-06T14:57:12.289Z,101370.21
2023-04-06T14:59:41.546Z,101366.09
2023-04-06T15:02:11.267Z,101362.44
2023-04-06T15:04:41.437Z,101368.70
2023-04-06T15:07:12.046Z,101362.44
2023-04-06T15:09:41.304Z,101368.51
2023-04-06T15:12:10.860Z,101367.95
2023-04-06T15:14:40.479Z,101365.13
2023-04-06T15:17:10.565Z,101365.17
2023-04-06T15:19:39.841Z,101361.34
2023-04-06T15:22:09.160Z,101361.59
2023-04-06T15:24:38.981Z,101355.89
2023-04-06T15:27:08.578Z,101355.30
2023-04-06T15:29:38.030Z,101353.83
2023-04-06T15:32:09.374Z,101352.61
2023-04-06T15:34:38.689Z,101345.86
2023-04-06T15:37:08.180Z,101348.13
2023-04-06T15:39:37.828Z,101350.74
2023-04-06T15:42:07.471Z,101346.97
2023-04-06T15:44:36.881Z,101352.56
2023-04-06T15:47:06.804Z,101350.09
2023-04-06T15:49:36.168Z,101347.31
2023-04-06T15:52:05.570Z,101346.81
2023-04-06T15:54:36.525Z,101346.75
2023-04-06T15:57:05.766Z,101344.48
2023-04-06T15:59:35.090Z,101342.61
2023-04-06T16:02:04.480Z,101342.41
2023-04-06T16:04:33.886Z,101334.73
2023-04-06T16:07:03.616Z,101334.35
2023-04-06T16:09:33.274Z,101338.78
2023-04-06T16:12:02.682Z,101336.77
2023-04-06T16:14:32.202Z,101335.09
2023-04-06T16:17:02.053Z,101338.08
2023-04-06T16:19:31.789Z,101334.25
2023-04-06T16:22:01.130Z,101339.03
2023-04-06T16:24:30.409Z,101334.25
2023-04-06T16:27:00.339Z,101333.22
2023-04-06T16:29:31.846Z,101336.05
2023-04-06T16:32:02.203Z,101333.94
2023-04-06T16:34:35.014Z,101330.60
2023-04-06T16:37:04.683Z,101330.60
2023-04-06T16:39:34.502Z,101330.70
2023-04-06T16:42:04.064Z,101327.98
2023-04-06T16:44:33.495Z,101328.90
2023-04-06T16:47:02.792Z,101330.75
2023-04-06T16:49:32.086Z,101332.42
2023-04-06T16:52:03.199Z,101327.36
2023-04-06T16:54:34.315Z,101327.56
2023-04-06T16:57:05.183Z,101322.11
2023-04-06T16:59:35.360Z,101323.42
2023-04-06T17:02:04.671Z,101325.86
2023-04-06T17:04:34.375Z,101327.56
2023-04-06T17:07:03.892Z,101330.34
2023-04-06T17:12:03.462Z,101314.39
2023-04-06T17:14:32.832Z,101309.70
2023-04-06T17:17:03.730Z,101311.98
2023-04-06T17:19:33.251Z,101320.95
2023-04-06T17:22:03.291Z,101318.69
2023-04-06T17:24:32.652Z,101311.77
2023-04-06T17:27:02.976Z,101312.98
2023-04-06T17:29:32.243Z,101317.38
2023-04-06T17:32:01.837Z,101316.49
2023-04-06T17:34:31.194Z,101314.52
2023-04-06T17:37:00.489Z,101323.70
2023-04-06T17:39:29.758Z,101318.91
2023-04-06T17:42:00.255Z,101319.91
2023-04-06T17:44:29.572Z,101325.75
2023-04-06T17:46:59.126Z,101329.17
2023-04-06T17:49:28.416Z,101324.59
2023-04-06T17:51:58.079Z,101330.73
2023-04-06T17:54:27.350Z,101332.25
2023-04-06T17:56:57.479Z,101334.84
2023-04-06T17:59:27.167Z,101332.69
2023-04-06T18:01:56.751Z,101333.53
2023-04-06T18:04:26.673Z,101335.56
2023-04-06T18:06:56.502Z,101337.16
2023-04-06T18:11:57.308Z,101337.05
2023-04-06T18:14:27.126Z,101336.73
2023-04-06T18:16:56.750Z,101337.20
2023-04-06T18:19:27.960Z,101346.17
2023-04-06T18:21:57.493Z,101348.69
2023-04-06T18:24:41.377Z,101346.34
2023-04-06T18:26:58.816Z,101349.33
2023-04-06T18:29:29.763Z,101353.84
2023-04-06T18:31:59.157Z,101355.78
2023-04-06T18:34:30.155Z,101355.69
2023-04-06T18:37:01.759Z,101360.37
2023-04-06T18:39:31.564Z,101362.78
2023-04-06T18:42:01.476Z,101359.30
2023-04-06T18:44:34.156Z,101372.11
2023-04-06T18:47:03.729Z,101373.28
2023-04-06T18:49:34.404Z,101380.73
2023-04-06T18:52:08.440Z,101374.42
2023-04-06T18:54:37.849Z,101376.94
2023-04-06T18:57:07.236Z,101375.63
2023-04-06T18:59:36.645Z,101377.58
2023-04-06T19:02:06.704Z,101378.53
2023-04-06T19:04:36.212Z,101381.88
2023-04-06T19:07:06.588Z,101387.91
2023-04-06T19:09:36.023Z,101394.26
2023-04-06T19:12:05.560Z,101394.65
2023-04-06T19:14:34.933Z,101392.91
2023-04-06T19:17:04.446Z,101402.45
2023-04-06T19:19:34.338Z,101397.09
2023-04-06T19:22:03.830Z,101404.52
2023-04-06T19:24:33.397Z,101405.25
2023-04-06T19:27:03.349Z,101404.87
2023-04-06T19:29:32.772Z,101414.56
2023-04-06T19:32:02.691Z,101408.34
2023-04-06T19:34:32.416Z,101413.59
2023-04-06T19:37:02.719Z,101419.70
2023-04-06T19:39:32.160Z,101422.80
2023-04-06T19:42:01.626Z,101432.67
2023-04-06T19:44:31.029Z,101427.20
2023-04-06T19:47:00.941Z,101432.31
2023-04-06T19:49:30.277Z,101430.12
2023-04-06T19:52:00.046Z,101431.89
2023-04-06T19:54:29.362Z,101430.12
2023-04-06T19:56:58.737Z,101434.05
2023-04-06T19:59:28.286Z,101434.98
2023-04-06T20:01:58.336Z,101440.63
2023-04-06T20:04:27.965Z,101439.13
2023-04-06T20:06:57.332Z,101439.98
2023-04-06T20:09:27.220Z,101439.52
2023-04-06T20:11:56.706Z,101445.59
2023-04-06T20:14:26.546Z,101444.78
2023-04-06T20:16:56.239Z,101450.75
2023-04-06T20:19:25.857Z,101447.66
2023-04-06T20:21:55.765Z,101448.72
2023-04-06T20:24:25.216Z,101450.35
2023-04-06T20:26:54.756Z,101454.90
2023-04-06T20:29:24.000Z,101447.02
2023-04-06T20:31:53.667Z,101456.92
2023-04-06T20:34:24.607Z,101456.53
2023-04-06T20:36:53.934Z,101459.44
2023-04-06T20:39:24.121Z,101463.59
2023-04-06T20:41:53.710Z,101459.65
2023-04-06T20:44:24.628Z,101460.32
2023-04-06T20:46:54.204Z,101462.48
2023-04-06T20:49:24.192Z,101465.94
2023-04-06T20:51:53.651Z,101462.88
2023-04-06T20:54:23.091Z,101458.75
2023-04-06T20:56:52.457Z,101460.73
2023-04-06T20:59:21.733Z,101465.81
2023-04-06T21:01:52.866Z,101466.12
2023-04-06T21:04:23.199Z,101465.02
2023-04-06T21:06:53.790Z,101472.27
2023-04-06T21:09:24.882Z,101466.66
2023-04-06T21:11:54.847Z,101470.25
2023-04-06T21:14:24.613Z,101473.44
2023-04-06T21:16:55.851Z,101475.59
2023-04-06T21:19:25.784Z,101475.59
2023-04-06T21:21:55.874Z,101472.89
2023-04-06T21:24:25.949Z,101469.16
2023-04-06T21:26:55.270Z,101476.22
2023-04-06T21:29:24.778Z,101466.64
2023-04-06T21:31:55.624Z,101473.20
2023-04-06T21:34:25.153Z,101478.87
2023-04-06T21:36:54.481Z,101476.70
2023-04-06T21:39:25.590Z,101468.22
2023-04-06T21:41:54.837Z,101472.06
2023-04-06T21:44:24.360Z,101471.35
2023-04-06T21:46:53.739Z,101481.84
2023-04-06T21:49:23.151Z,101479.53
2023-04-06T21:51:52.461Z,101477.77
2023-04-06T21:54:21.811Z,101478.33
2023-04-06T21:56:51.153Z,101476.86
2023-04-06T21:59:20.818Z,101474.80
2023-04-06T22:01:50.279Z,101482.67
2023-04-06T22:04:20.479Z,101480.05
2023-04-06T22:06:51.082Z,101487.06
2023-04-06T22:09:20.482Z,101494.13
2023-04-06T22:11:49.854Z,101493.38
2023-04-06T22:14:19.969Z,101492.45
2023-04-06T22:16:49.429Z,101487.56
2023-04-06T22:19:18.773Z,101494.23
2023-04-06T22:21:48.158Z,101485.34
2023-04-06T22:24:18.089Z,101484.63
2023-04-06T22:26:47.648Z,101494.92
2023-04-06T22:29:17.585Z,101497.55
2023-04-06T22:31:47.386Z,101504.86
2023-04-06T22:34:17.120Z,101506.72
2023-04-06T22:36:46.938Z,101510.76
2023-04-06T22:39:16.478Z,101502.23
2023-04-06T22:41:46.011Z,101510.13
2023-04-06T22:44:15.707Z,101504.49
2023-04-06T22:46:45.504Z,101508.63
2023-04-06T22:49:14.779Z,101510.13
2023-04-06T22:51:44.464Z,101508.43
2023-04-06T22:54:14.345Z,101514.98
2023-04-06T22:56:43.960Z,101512.66
2023-04-06T22:59:13.253Z,101507.21
2023-04-06T23:01:42.633Z,101519.60
2023-04-06T23:04:12.140Z,101512.84
2023-04-06T23:06:41.502Z,101510.32
2023-04-06T23:09:10.768Z,101515.27
2023-04-06T23:11:40.378Z,101519.11
2023-04-06T23:14:09.669Z,101516.42
2023-04-06T23:16:39.180Z,101528.31
2023-04-06T23:19:08.421Z,101531.79
2023-04-06T23:21:37.736Z,101527.76
2023-04-06T23:24:07.347Z,101534.31
2023-04-06T23:26:36.616Z,101531.70
2023-04-06T23:29:05.991Z,101538.42
2023-04-06T23:31:35.284Z,101538.25
2023-04-06T23:34:04.755Z,101539.07
2023-04-06T23:36:34.417Z,101537.23
2023-04-06T23:39:03.722Z,101540.30
2023-04-06T23:41:33.334Z,101542.08
2023-04-06T23:44:02.957Z,101538.07
2023-04-06T23:46:32.270Z,101537.41
2023-04-06T23:49:01.778Z,101542.74
2023-04-06T23:51:31.833Z,101539.36
2023-04-06T23:54:01.425Z,101545.28
2023-04-06T23:56:30.983Z,101544.42
2023-04-06T23:59:00.570Z,101548.65
